sensor_id;sensor_type;location;lat;lon;timestamp;P1;durP1;ratioP1;P2;durP2;ratioP2
53052;SDS011;38934;52.690;6.184;2023-08-31T00:02:12;8.02;;;5.10;;
53052;SDS011;38934;52.690;6.184;2023-08-31T00:04:38;9.35;;;5.57;;
53052;SDS011;38934;52.690;6.184;2023-08-31T00:07:04;10.88;;;5.43;;
53052;SDS011;38934;52.690;6.184;2023-08-31T00:09:30;11.25;;;5.05;;
53052;SDS011;38934;52.690;6.184;2023-08-31T00:11:56;7.50;;;3.05;;
53052;SDS011;38934;52.690;6.184;2023-08-31T00:14:22;5.65;;;2.65;;
53052;SDS011;38934;52.690;6.184;2023-08-31T00:16:48;5.43;;;2.50;;
53052;SDS011;38934;52.690;6.184;2023-08-31T00:19:15;5.60;;;2.65;;
53052;SDS011;38934;52.690;6.184;2023-08-31T00:21:41;5.25;;;2.53;;
53052;SDS011;38934;52.690;6.184;2023-08-31T00:24:07;5.88;;;3.10;;
53052;SDS011;38934;52.690;6.184;2023-08-31T00:26:34;4.88;;;3.10;;
53052;SDS011;38934;52.690;6.184;2023-08-31T00:29:05;6.50;;;3.05;;
53052;SDS011;38934;52.690;6.184;2023-08-31T00:31:31;5.97;;;3.08;;
53052;SDS011;38934;52.690;6.184;2023-08-31T00:33:59;4.75;;;2.40;;
53052;SDS011;38934;52.690;6.184;2023-08-31T00:36:28;3.75;;;2.30;;
53052;SDS011;38934;52.690;6.184;2023-08-31T00:38:54;4.30;;;2.30;;
53052;SDS011;38934;52.690;6.184;2023-08-31T00:41:21;3.25;;;1.70;;
53052;SDS011;38934;52.690;6.184;2023-08-31T00:43:47;4.70;;;1.92;;
53052;SDS011;38934;52.690;6.184;2023-08-31T00:46:13;4.30;;;1.80;;
53052;SDS011;38934;52.690;6.184;2023-08-31T00:48:40;2.30;;;1.58;;
53052;SDS011;38934;52.690;6.184;2023-08-31T00:51:06;3.55;;;1.80;;
53052;SDS011;38934;52.690;6.184;2023-08-31T00:53:32;2.95;;;1.73;;
53052;SDS011;38934;52.690;6.184;2023-08-31T00:56:00;4.38;;;2.20;;
53052;SDS011;38934;52.690;6.184;2023-08-31T00:58:25;6.95;;;3.05;;
53052;SDS011;38934;52.690;6.184;2023-08-31T01:09:09;10.23;;;5.25;;
53052;SDS011;38934;52.690;6.184;2023-08-31T01:11:54;10.27;;;5.85;;
53052;SDS011;38934;52.690;6.184;2023-08-31T01:14:38;8.38;;;5.45;;
53052;SDS011;38934;52.690;6.184;2023-08-31T01:17:12;11.88;;;5.80;;
53052;SDS011;38934;52.690;6.184;2023-08-31T01:19:43;8.55;;;5.60;;
53052;SDS011;38934;52.690;6.184;2023-08-31T01:25:35;7.55;;;4.25;;
53052;SDS011;38934;52.690;6.184;2023-08-31T01:28:02;5.40;;;3.75;;
53052;SDS011;38934;52.690;6.184;2023-08-31T01:30:31;6.07;;;3.92;;
53052;SDS011;38934;52.690;6.184;2023-08-31T01:32:58;7.32;;;3.75;;
53052;SDS011;38934;52.690;6.184;2023-08-31T01:35:24;6.78;;;3.22;;
53052;SDS011;38934;52.690;6.184;2023-08-31T01:37:54;5.88;;;3.20;;
53052;SDS011;38934;52.690;6.184;2023-08-31T01:43:08;3.50;;;3.00;;
53052;SDS011;38934;52.690;6.184;2023-08-31T01:45:36;5.40;;;3.33;;
53052;SDS011;38934;52.690;6.184;2023-08-31T01:48:03;4.68;;;3.08;;
53052;SDS011;38934;52.690;6.184;2023-08-31T01:50:29;4.55;;;2.70;;
53052;SDS011;38934;52.690;6.184;2023-08-31T01:52:55;4.03;;;2.65;;
53052;SDS011;38934;52.690;6.184;2023-08-31T01:55:21;4.07;;;2.80;;
53052;SDS011;38934;52.690;6.184;2023-08-31T01:57:48;5.07;;;2.70;;
53052;SDS011;38934;52.690;6.184;2023-08-31T02:00:15;6.07;;;2.60;;
53052;SDS011;38934;52.690;6.184;2023-08-31T02:02:42;4.18;;;2.13;;
53052;SDS011;38934;52.690;6.184;2023-08-31T02:05:08;2.83;;;2.00;;
53052;SDS011;38934;52.690;6.184;2023-08-31T02:07:34;3.00;;;2.20;;
53052;SDS011;38934;52.690;6.184;2023-08-31T02:09:59;2.33;;;2.00;;
53052;SDS011;38934;52.690;6.184;2023-08-31T02:12:25;2.42;;;2.10;;
53052;SDS011;38934;52.690;6.184;2023-08-31T02:14:50;4.53;;;2.25;;
53052;SDS011;38934;52.690;6.184;2023-08-31T02:17:16;3.28;;;1.80;;
53052;SDS011;38934;52.690;6.184;2023-08-31T02:19:42;3.90;;;2.10;;
53052;SDS011;38934;52.690;6.184;2023-08-31T02:22:08;4.82;;;1.92;;
53052;SDS011;38934;52.690;6.184;2023-08-31T02:24:33;2.58;;;2.30;;
53052;SDS011;38934;52.690;6.184;2023-08-31T02:26:59;4.85;;;2.80;;
53052;SDS011;38934;52.690;6.184;2023-08-31T02:29:25;3.65;;;3.10;;
53052;SDS011;38934;52.690;6.184;2023-08-31T02:31:51;7.63;;;4.22;;
53052;SDS011;38934;52.690;6.184;2023-08-31T02:34:16;5.25;;;4.28;;
53052;SDS011;38934;52.690;6.184;2023-08-31T02:36:42;6.07;;;5.30;;
53052;SDS011;38934;52.690;6.184;2023-08-31T02:39:08;5.95;;;5.25;;
53052;SDS011;38934;52.690;6.184;2023-08-31T02:41:33;7.45;;;5.80;;
53052;SDS011;38934;52.690;6.184;2023-08-31T02:43:59;7.75;;;6.75;;
53052;SDS011;38934;52.690;6.184;2023-08-31T02:46:25;9.18;;;7.05;;
53052;SDS011;38934;52.690;6.184;2023-08-31T02:48:50;10.77;;;8.57;;
53052;SDS011;38934;52.690;6.184;2023-08-31T02:51:16;13.75;;;9.60;;
53052;SDS011;38934;52.690;6.184;2023-08-31T02:53:41;15.18;;;11.73;;
53052;SDS011;38934;52.690;6.184;2023-08-31T02:56:07;12.90;;;11.60;;
53052;SDS011;38934;52.690;6.184;2023-08-31T02:58:33;14.15;;;12.65;;
53052;SDS011;38934;52.690;6.184;2023-08-31T03:01:08;15.77;;;12.48;;
53052;SDS011;38934;52.690;6.184;2023-08-31T03:03:36;15.52;;;13.10;;
53052;SDS011;38934;52.690;6.184;2023-08-31T03:06:03;14.27;;;12.15;;
53052;SDS011;38934;52.690;6.184;2023-08-31T03:08:28;14.73;;;13.10;;
53052;SDS011;38934;52.690;6.184;2023-08-31T03:10:55;14.23;;;11.98;;
53052;SDS011;38934;52.690;6.184;2023-08-31T03:13:21;14.15;;;11.52;;
53052;SDS011;38934;52.690;6.184;2023-08-31T03:15:47;14.82;;;11.50;;
53052;SDS011;38934;52.690;6.184;2023-08-31T03:18:12;15.15;;;10.73;;
53052;SDS011;38934;52.690;6.184;2023-08-31T03:20:38;11.95;;;9.77;;
53052;SDS011;38934;52.690;6.184;2023-08-31T03:23:04;15.23;;;10.18;;
53052;SDS011;38934;52.690;6.184;2023-08-31T03:25:30;12.10;;;9.45;;
53052;SDS011;38934;52.690;6.184;2023-08-31T03:27:55;12.75;;;9.07;;
53052;SDS011;38934;52.690;6.184;2023-08-31T03:30:21;10.80;;;9.02;;
53052;SDS011;38934;52.690;6.184;2023-08-31T03:32:47;13.73;;;9.07;;
53052;SDS011;38934;52.690;6.184;2023-08-31T03:35:12;11.38;;;8.05;;
53052;SDS011;38934;52.690;6.184;2023-08-31T03:37:38;9.68;;;8.20;;
53052;SDS011;38934;52.690;6.184;2023-08-31T03:40:04;9.70;;;7.93;;
53052;SDS011;38934;52.690;6.184;2023-08-31T03:42:31;10.32;;;7.40;;
53052;SDS011;38934;52.690;6.184;2023-08-31T03:44:58;10.52;;;7.03;;
53052;SDS011;38934;52.690;6.184;2023-08-31T03:47:24;9.15;;;6.93;;
53052;SDS011;38934;52.690;6.184;2023-08-31T03:49:50;10.10;;;6.68;;
53052;SDS011;38934;52.690;6.184;2023-08-31T03:52:15;8.48;;;6.40;;
53052;SDS011;38934;52.690;6.184;2023-08-31T03:54:41;8.10;;;5.90;;
53052;SDS011;38934;52.690;6.184;2023-08-31T03:57:06;7.57;;;5.55;;
53052;SDS011;38934;52.690;6.184;2023-08-31T03:59:32;9.27;;;5.63;;
53052;SDS011;38934;52.690;6.184;2023-08-31T04:01:58;8.05;;;5.90;;
53052;SDS011;38934;52.690;6.184;2023-08-31T04:04:24;11.60;;;5.93;;
53052;SDS011;38934;52.690;6.184;2023-08-31T04:06:50;8.88;;;6.30;;
53052;SDS011;38934;52.690;6.184;2023-08-31T04:09:15;7.95;;;5.28;;
53052;SDS011;38934;52.690;6.184;2023-08-31T04:11:41;7.18;;;5.70;;
53052;SDS011;38934;52.690;6.184;2023-08-31T04:14:06;9.63;;;5.82;;
53052;SDS011;38934;52.690;6.184;2023-08-31T04:16:32;7.32;;;6.13;;
53052;SDS011;38934;52.690;6.184;2023-08-31T04:18:57;8.23;;;5.78;;
53052;SDS011;38934;52.690;6.184;2023-08-31T04:21:23;7.80;;;6.40;;
53052;SDS011;38934;52.690;6.184;2023-08-31T04:23:49;9.20;;;6.20;;
53052;SDS011;38934;52.690;6.184;2023-08-31T04:26:14;8.77;;;6.60;;
53052;SDS011;38934;52.690;6.184;2023-08-31T04:28:42;7.80;;;6.50;;
53052;SDS011;38934;52.690;6.184;2023-08-31T04:31:08;10.02;;;7.13;;
53052;SDS011;38934;52.690;6.184;2023-08-31T04:33:34;9.77;;;7.13;;
53052;SDS011;38934;52.690;6.184;2023-08-31T04:36:01;10.88;;;7.88;;
53052;SDS011;38934;52.690;6.184;2023-08-31T04:38:28;12.15;;;8.00;;
53052;SDS011;38934;52.690;6.184;2023-08-31T04:40:54;13.45;;;9.85;;
53052;SDS011;38934;52.690;6.184;2023-08-31T04:43:22;14.00;;;9.32;;
53052;SDS011;38934;52.690;6.184;2023-08-31T04:45:48;11.82;;;9.65;;
53052;SDS011;38934;52.690;6.184;2023-08-31T04:48:14;13.85;;;10.35;;
53052;SDS011;38934;52.690;6.184;2023-08-31T04:50:40;12.75;;;10.50;;
53052;SDS011;38934;52.690;6.184;2023-08-31T04:53:06;14.93;;;10.65;;
53052;SDS011;38934;52.690;6.184;2023-08-31T04:55:32;11.85;;;10.65;;
53052;SDS011;38934;52.690;6.184;2023-08-31T04:57:57;12.75;;;10.60;;
53052;SDS011;38934;52.690;6.184;2023-08-31T05:00:23;12.80;;;10.85;;
53052;SDS011;38934;52.690;6.184;2023-08-31T05:02:49;13.82;;;10.43;;
53052;SDS011;38934;52.690;6.184;2023-08-31T05:05:14;15.13;;;11.63;;
53052;SDS011;38934;52.690;6.184;2023-08-31T05:07:40;16.25;;;9.98;;
53052;SDS011;38934;52.690;6.184;2023-08-31T05:10:06;14.18;;;10.75;;
53052;SDS011;38934;52.690;6.184;2023-08-31T05:12:32;13.05;;;10.35;;
53052;SDS011;38934;52.690;6.184;2023-08-31T05:14:58;13.93;;;10.48;;
53052;SDS011;38934;52.690;6.184;2023-08-31T05:17:24;12.20;;;10.27;;
53052;SDS011;38934;52.690;6.184;2023-08-31T05:19:49;12.30;;;10.00;;
53052;SDS011;38934;52.690;6.184;2023-08-31T05:22:15;12.20;;;10.43;;
53052;SDS011;38934;52.690;6.184;2023-08-31T05:24:41;13.50;;;10.27;;
53052;SDS011;38934;52.690;6.184;2023-08-31T05:27:07;12.25;;;10.27;;
53052;SDS011;38934;52.690;6.184;2023-08-31T05:29:32;12.52;;;10.07;;
53052;SDS011;38934;52.690;6.184;2023-08-31T05:31:58;13.00;;;9.68;;
53052;SDS011;38934;52.690;6.184;2023-08-31T05:34:24;12.80;;;9.85;;
53052;SDS011;38934;52.690;6.184;2023-08-31T05:36:50;12.55;;;8.65;;
53052;SDS011;38934;52.690;6.184;2023-08-31T05:39:16;11.55;;;8.63;;
53052;SDS011;38934;52.690;6.184;2023-08-31T05:41:42;13.75;;;8.52;;
53052;SDS011;38934;52.690;6.184;2023-08-31T05:44:09;10.15;;;8.00;;
53052;SDS011;38934;52.690;6.184;2023-08-31T05:46:35;11.50;;;8.27;;
53052;SDS011;38934;52.690;6.184;2023-08-31T05:49:01;14.52;;;7.97;;
53052;SDS011;38934;52.690;6.184;2023-08-31T05:51:27;13.68;;;7.47;;
53052;SDS011;38934;52.690;6.184;2023-08-31T05:53:53;14.48;;;7.38;;
53052;SDS011;38934;52.690;6.184;2023-08-31T05:56:19;11.15;;;7.45;;
53052;SDS011;38934;52.690;6.184;2023-08-31T05:58:45;12.70;;;7.78;;
53052;SDS011;38934;52.690;6.184;2023-08-31T06:01:10;13.05;;;8.00;;
53052;SDS011;38934;52.690;6.184;2023-08-31T06:03:47;15.57;;;8.18;;
53052;SDS011;38934;52.690;6.184;2023-08-31T06:06:15;8.48;;;7.32;;
53052;SDS011;38934;52.690;6.184;2023-08-31T06:08:41;11.00;;;7.95;;
53052;SDS011;38934;52.690;6.184;2023-08-31T06:11:08;9.88;;;6.75;;
53052;SDS011;38934;52.690;6.184;2023-08-31T06:13:34;9.52;;;6.63;;
53052;SDS011;38934;52.690;6.184;2023-08-31T06:16:00;8.32;;;6.55;;
53052;SDS011;38934;52.690;6.184;2023-08-31T06:18:26;12.50;;;7.10;;
53052;SDS011;38934;52.690;6.184;2023-08-31T06:20:51;8.35;;;6.30;;
53052;SDS011;38934;52.690;6.184;2023-08-31T06:23:17;9.35;;;5.45;;
53052;SDS011;38934;52.690;6.184;2023-08-31T06:25:43;9.23;;;5.57;;
53052;SDS011;38934;52.690;6.184;2023-08-31T06:28:11;7.65;;;6.05;;
53052;SDS011;38934;52.690;6.184;2023-08-31T06:30:37;8.68;;;5.70;;
53052;SDS011;38934;52.690;6.184;2023-08-31T06:33:03;9.57;;;5.35;;
53052;SDS011;38934;52.690;6.184;2023-08-31T06:35:30;8.15;;;5.45;;
53052;SDS011;38934;52.690;6.184;2023-08-31T06:37:58;8.38;;;6.00;;
53052;SDS011;38934;52.690;6.184;2023-08-31T06:40:24;6.80;;;3.92;;
53052;SDS011;38934;52.690;6.184;2023-08-31T06:42:50;8.88;;;4.20;;
53052;SDS011;38934;52.690;6.184;2023-08-31T06:45:16;6.78;;;3.47;;
53052;SDS011;38934;52.690;6.184;2023-08-31T06:47:41;9.27;;;3.55;;
53052;SDS011;38934;52.690;6.184;2023-08-31T06:50:07;5.30;;;3.08;;
53052;SDS011;38934;52.690;6.184;2023-08-31T06:52:33;9.25;;;3.13;;
53052;SDS011;38934;52.690;6.184;2023-08-31T06:54:59;7.38;;;3.28;;
53052;SDS011;38934;52.690;6.184;2023-08-31T06:57:25;5.00;;;3.13;;
53052;SDS011;38934;52.690;6.184;2023-08-31T06:59:52;5.25;;;3.20;;
53052;SDS011;38934;52.690;6.184;2023-08-31T07:02:18;6.85;;;2.70;;
53052;SDS011;38934;52.690;6.184;2023-08-31T07:04:44;4.30;;;2.53;;
53052;SDS011;38934;52.690;6.184;2023-08-31T07:07:11;6.88;;;2.50;;
53052;SDS011;38934;52.690;6.184;2023-08-31T07:09:39;3.70;;;2.50;;
53052;SDS011;38934;52.690;6.184;2023-08-31T07:12:06;8.45;;;2.85;;
53052;SDS011;38934;52.690;6.184;2023-08-31T07:14:32;5.63;;;2.25;;
53052;SDS011;38934;52.690;6.184;2023-08-31T07:16:58;5.90;;;2.10;;
53052;SDS011;38934;52.690;6.184;2023-08-31T07:19:23;5.97;;;2.30;;
53052;SDS011;38934;52.690;6.184;2023-08-31T07:21:49;4.00;;;1.98;;
53052;SDS011;38934;52.690;6.184;2023-08-31T07:24:14;3.45;;;1.73;;
53052;SDS011;38934;52.690;6.184;2023-08-31T07:26:40;3.65;;;2.00;;
53052;SDS011;38934;52.690;6.184;2023-08-31T07:29:06;4.32;;;1.70;;
53052;SDS011;38934;52.690;6.184;2023-08-31T07:31:31;6.82;;;2.10;;
53052;SDS011;38934;52.690;6.184;2023-08-31T07:33:57;4.38;;;1.88;;
53052;SDS011;38934;52.690;6.184;2023-08-31T07:36:24;5.68;;;1.70;;
53052;SDS011;38934;52.690;6.184;2023-08-31T07:38:49;3.65;;;1.80;;
53052;SDS011;38934;52.690;6.184;2023-08-31T07:41:15;2.63;;;1.38;;
53052;SDS011;38934;52.690;6.184;2023-08-31T07:43:41;2.22;;;1.50;;
53052;SDS011;38934;52.690;6.184;2023-08-31T07:46:06;3.80;;;1.60;;
53052;SDS011;38934;52.690;6.184;2023-08-31T07:48:32;2.72;;;1.30;;
53052;SDS011;38934;52.690;6.184;2023-08-31T07:50:58;4.28;;;1.40;;
53052;SDS011;38934;52.690;6.184;2023-08-31T07:53:23;5.07;;;1.38;;
53052;SDS011;38934;52.690;6.184;2023-08-31T07:55:55;3.60;;;1.23;;
53052;SDS011;38934;52.690;6.184;2023-08-31T07:58:24;4.28;;;1.65;;
53052;SDS011;38934;52.690;6.184;2023-08-31T08:00:53;2.28;;;1.40;;
53052;SDS011;38934;52.690;6.184;2023-08-31T08:03:20;4.18;;;1.75;;
53052;SDS011;38934;52.690;6.184;2023-08-31T08:05:46;2.75;;;1.50;;
53052;SDS011;38934;52.690;6.184;2023-08-31T08:08:12;4.38;;;1.50;;
53052;SDS011;38934;52.690;6.184;2023-08-31T08:10:38;3.85;;;1.55;;
53052;SDS011;38934;52.690;6.184;2023-08-31T08:13:03;2.88;;;1.40;;
53052;SDS011;38934;52.690;6.184;2023-08-31T08:15:30;4.63;;;1.35;;
53052;SDS011;38934;52.690;6.184;2023-08-31T08:17:56;2.55;;;1.30;;
53052;SDS011;38934;52.690;6.184;2023-08-31T08:20:22;2.33;;;1.35;;
53052;SDS011;38934;52.690;6.184;2023-08-31T08:22:49;3.83;;;1.45;;
53052;SDS011;38934;52.690;6.184;2023-08-31T08:25:18;2.85;;;1.45;;
53052;SDS011;38934;52.690;6.184;2023-08-31T08:27:44;1.75;;;1.25;;
53052;SDS011;38934;52.690;6.184;2023-08-31T08:30:10;4.93;;;1.35;;
53052;SDS011;38934;52.690;6.184;2023-08-31T08:32:36;5.15;;;1.50;;
53052;SDS011;38934;52.690;6.184;2023-08-31T08:35:02;2.47;;;1.17;;
53052;SDS011;38934;52.690;6.184;2023-08-31T08:37:28;3.60;;;1.60;;
53052;SDS011;38934;52.690;6.184;2023-08-31T08:39:54;4.45;;;1.70;;
53052;SDS011;38934;52.690;6.184;2023-08-31T08:42:20;6.90;;;2.13;;
53052;SDS011;38934;52.690;6.184;2023-08-31T08:44:49;5.45;;;2.22;;
53052;SDS011;38934;52.690;6.184;2023-08-31T08:47:15;5.65;;;2.10;;
53052;SDS011;38934;52.690;6.184;2023-08-31T08:49:42;4.85;;;2.10;;
53052;SDS011;38934;52.690;6.184;2023-08-31T08:52:09;6.18;;;2.05;;
53052;SDS011;38934;52.690;6.184;2023-08-31T08:54:36;7.70;;;2.13;;
53052;SDS011;38934;52.690;6.184;2023-08-31T08:57:02;4.68;;;1.92;;
53052;SDS011;38934;52.690;6.184;2023-08-31T08:59:29;6.03;;;2.28;;
53052;SDS011;38934;52.690;6.184;2023-08-31T09:01:56;4.63;;;1.95;;
53052;SDS011;38934;52.690;6.184;2023-08-31T09:04:21;4.25;;;1.92;;
53052;SDS011;38934;52.690;6.184;2023-08-31T09:06:47;3.80;;;1.90;;
53052;SDS011;38934;52.690;6.184;2023-08-31T09:09:15;6.60;;;2.22;;
53052;SDS011;38934;52.690;6.184;2023-08-31T09:11:42;3.05;;;1.90;;
53052;SDS011;38934;52.690;6.184;2023-08-31T09:14:20;4.90;;;1.83;;
53052;SDS011;38934;52.690;6.184;2023-08-31T09:16:46;3.50;;;1.98;;
53052;SDS011;38934;52.690;6.184;2023-08-31T09:19:23;5.43;;;1.88;;
53052;SDS011;38934;52.690;6.184;2023-08-31T09:21:54;2.95;;;1.70;;
53052;SDS011;38934;52.690;6.184;2023-08-31T09:24:21;3.75;;;1.63;;
53052;SDS011;38934;52.690;6.184;2023-08-31T09:26:52;4.65;;;1.88;;
53052;SDS011;38934;52.690;6.184;2023-08-31T09:29:21;5.65;;;1.70;;
53052;SDS011;38934;52.690;6.184;2023-08-31T09:31:47;4.40;;;1.60;;
53052;SDS011;38934;52.690;6.184;2023-08-31T09:34:16;3.25;;;1.50;;
53052;SDS011;38934;52.690;6.184;2023-08-31T09:36:43;5.22;;;1.27;;
53052;SDS011;38934;52.690;6.184;2023-08-31T09:39:09;3.97;;;1.40;;
53052;SDS011;38934;52.690;6.184;2023-08-31T09:41:52;3.42;;;1.40;;
53052;SDS011;38934;52.690;6.184;2023-08-31T09:44:20;2.75;;;1.42;;
53052;SDS011;38934;52.690;6.184;2023-08-31T09:46:46;4.55;;;1.40;;
53052;SDS011;38934;52.690;6.184;2023-08-31T09:49:13;4.30;;;1.60;;
53052;SDS011;38934;52.690;6.184;2023-08-31T09:51:41;3.15;;;1.45;;
53052;SDS011;38934;52.690;6.184;2023-08-31T09:54:13;3.17;;;1.33;;
53052;SDS011;38934;52.690;6.184;2023-08-31T09:56:44;4.18;;;1.40;;
53052;SDS011;38934;52.690;6.184;2023-08-31T09:59:11;6.07;;;1.77;;
53052;SDS011;38934;52.690;6.184;2023-08-31T10:01:38;3.47;;;1.30;;
53052;SDS011;38934;52.690;6.184;2023-08-31T10:04:05;5.75;;;1.70;;
53052;SDS011;38934;52.690;6.184;2023-08-31T10:06:34;4.57;;;2.08;;
53052;SDS011;38934;52.690;6.184;2023-08-31T10:09:03;3.90;;;1.40;;
53052;SDS011;38934;52.690;6.184;2023-08-31T10:11:29;3.15;;;1.42;;
53052;SDS011;38934;52.690;6.184;2023-08-31T10:13:56;5.22;;;1.42;;
53052;SDS011;38934;52.690;6.184;2023-08-31T10:16:24;3.70;;;1.52;;
53052;SDS011;38934;52.690;6.184;2023-08-31T10:18:51;4.60;;;1.30;;
53052;SDS011;38934;52.690;6.184;2023-08-31T10:21:17;4.00;;;1.20;;
53052;SDS011;38934;52.690;6.184;2023-08-31T10:23:44;2.75;;;1.30;;
53052;SDS011;38934;52.690;6.184;2023-08-31T10:26:10;5.80;;;1.40;;
53052;SDS011;38934;52.690;6.184;2023-08-31T10:28:39;4.03;;;1.40;;
53052;SDS011;38934;52.690;6.184;2023-08-31T10:31:10;3.97;;;1.33;;
53052;SDS011;38934;52.690;6.184;2023-08-31T10:33:58;4.18;;;1.30;;
53052;SDS011;38934;52.690;6.184;2023-08-31T10:36:36;3.40;;;1.30;;
53052;SDS011;38934;52.690;6.184;2023-08-31T10:41:42;3.08;;;1.30;;
53052;SDS011;38934;52.690;6.184;2023-08-31T10:44:18;4.43;;;1.45;;
53052;SDS011;38934;52.690;6.184;2023-08-31T10:46:48;4.25;;;1.40;;
53052;SDS011;38934;52.690;6.184;2023-08-31T10:49:16;3.53;;;1.30;;
53052;SDS011;38934;52.690;6.184;2023-08-31T10:51:44;2.80;;;1.40;;
53052;SDS011;38934;52.690;6.184;2023-08-31T10:56:52;4.05;;;1.10;;
53052;SDS011;38934;52.690;6.184;2023-08-31T11:02:10;5.35;;;1.73;;
53052;SDS011;38934;52.690;6.184;2023-08-31T11:07:35;5.47;;;1.60;;
53052;SDS011;38934;52.690;6.184;2023-08-31T11:10:17;10.20;;;2.42;;
53052;SDS011;38934;52.690;6.184;2023-08-31T11:12:45;2.10;;;0.80;;
53052;SDS011;38934;52.690;6.184;2023-08-31T11:15:16;5.18;;;1.23;;
53052;SDS011;38934;52.690;6.184;2023-08-31T11:17:43;5.60;;;1.38;;
53052;SDS011;38934;52.690;6.184;2023-08-31T11:20:13;4.53;;;1.70;;
53052;SDS011;38934;52.690;6.184;2023-08-31T11:22:44;4.45;;;1.60;;
53052;SDS011;38934;52.690;6.184;2023-08-31T11:25:12;7.10;;;2.10;;
53052;SDS011;38934;52.690;6.184;2023-08-31T11:27:39;4.18;;;1.40;;
53052;SDS011;38934;52.690;6.184;2023-08-31T11:30:38;3.83;;;1.40;;
53052;SDS011;38934;52.690;6.184;2023-08-31T11:32:58;1.63;;;1.07;;
53052;SDS011;38934;52.690;6.184;2023-08-31T11:35:35;5.88;;;1.20;;
53052;SDS011;38934;52.690;6.184;2023-08-31T11:38:02;2.60;;;1.17;;
53052;SDS011;38934;52.690;6.184;2023-08-31T11:40:29;2.55;;;1.15;;
53052;SDS011;38934;52.690;6.184;2023-08-31T11:42:55;2.10;;;1.00;;
53052;SDS011;38934;52.690;6.184;2023-08-31T11:45:22;3.05;;;1.17;;
53052;SDS011;38934;52.690;6.184;2023-08-31T11:47:49;3.38;;;1.30;;
53052;SDS011;38934;52.690;6.184;2023-08-31T11:50:15;4.38;;;1.52;;
53052;SDS011;38934;52.690;6.184;2023-08-31T11:52:42;3.60;;;1.45;;
53052;SDS011;38934;52.690;6.184;2023-08-31T11:55:11;4.43;;;1.30;;
53052;SDS011;38934;52.690;6.184;2023-08-31T11:57:37;3.97;;;1.27;;
53052;SDS011;38934;52.690;6.184;2023-08-31T12:00:03;3.33;;;1.52;;
53052;SDS011;38934;52.690;6.184;2023-08-31T12:02:40;7.40;;;1.63;;
53052;SDS011;38934;52.690;6.184;2023-08-31T12:05:05;10.18;;;2.05;;
53052;SDS011;38934;52.690;6.184;2023-08-31T12:07:31;10.15;;;2.13;;
53052;SDS011;38934;52.690;6.184;2023-08-31T12:10:03;20.73;;;2.97;;
53052;SDS011;38934;52.690;6.184;2023-08-31T12:12:29;5.37;;;1.90;;
53052;SDS011;38934;52.690;6.184;2023-08-31T12:14:57;4.38;;;1.67;;
53052;SDS011;38934;52.690;6.184;2023-08-31T12:17:26;6.28;;;1.88;;
53052;SDS011;38934;52.690;6.184;2023-08-31T12:19:51;6.65;;;1.95;;
53052;SDS011;38934;52.690;6.184;2023-08-31T12:22:17;7.88;;;2.22;;
53052;SDS011;38934;52.690;6.184;2023-08-31T12:24:43;6.07;;;2.08;;
53052;SDS011;38934;52.690;6.184;2023-08-31T12:27:08;3.80;;;1.58;;
53052;SDS011;38934;52.690;6.184;2023-08-31T12:29:34;7.20;;;2.10;;
53052;SDS011;38934;52.690;6.184;2023-08-31T12:32:07;7.15;;;2.25;;
53052;SDS011;38934;52.690;6.184;2023-08-31T12:34:33;6.53;;;2.30;;
53052;SDS011;38934;52.690;6.184;2023-08-31T12:36:58;6.30;;;2.28;;
53052;SDS011;38934;52.690;6.184;2023-08-31T12:39:26;6.50;;;2.00;;
53052;SDS011;38934;52.690;6.184;2023-08-31T12:41:51;7.15;;;2.13;;
53052;SDS011;38934;52.690;6.184;2023-08-31T12:44:17;7.18;;;1.95;;
53052;SDS011;38934;52.690;6.184;2023-08-31T12:46:43;4.45;;;1.98;;
53052;SDS011;38934;52.690;6.184;2023-08-31T12:49:08;8.82;;;2.10;;
53052;SDS011;38934;52.690;6.184;2023-08-31T12:51:34;4.85;;;2.13;;
53052;SDS011;38934;52.690;6.184;2023-08-31T12:54:00;7.15;;;2.05;;
53052;SDS011;38934;52.690;6.184;2023-08-31T12:56:25;6.57;;;2.08;;
53052;SDS011;38934;52.690;6.184;2023-08-31T12:58:51;5.30;;;2.25;;
53052;SDS011;38934;52.690;6.184;2023-08-31T13:01:19;4.72;;;1.98;;
53052;SDS011;38934;52.690;6.184;2023-08-31T13:03:46;6.32;;;2.08;;
53052;SDS011;38934;52.690;6.184;2023-08-31T13:06:12;6.13;;;1.83;;
53052;SDS011;38934;52.690;6.184;2023-08-31T13:08:38;4.90;;;1.48;;
53052;SDS011;38934;52.690;6.184;2023-08-31T13:11:04;6.40;;;1.77;;
53052;SDS011;38934;52.690;6.184;2023-08-31T13:13:30;5.43;;;1.70;;
53052;SDS011;38934;52.690;6.184;2023-08-31T13:15:59;7.05;;;1.77;;
53052;SDS011;38934;52.690;6.184;2023-08-31T13:18:24;5.32;;;1.50;;
53052;SDS011;38934;52.690;6.184;2023-08-31T13:20:51;4.82;;;1.70;;
53052;SDS011;38934;52.690;6.184;2023-08-31T13:23:17;5.32;;;1.65;;
53052;SDS011;38934;52.690;6.184;2023-08-31T13:25:43;5.20;;;1.77;;
53052;SDS011;38934;52.690;6.184;2023-08-31T13:28:09;5.70;;;1.92;;
53052;SDS011;38934;52.690;6.184;2023-08-31T13:30:35;9.23;;;2.08;;
53052;SDS011;38934;52.690;6.184;2023-08-31T13:33:01;6.55;;;2.00;;
53052;SDS011;38934;52.690;6.184;2023-08-31T13:35:27;4.38;;;1.80;;
53052;SDS011;38934;52.690;6.184;2023-08-31T13:37:52;10.25;;;1.90;;
53052;SDS011;38934;52.690;6.184;2023-08-31T13:40:18;9.38;;;1.95;;
53052;SDS011;38934;52.690;6.184;2023-08-31T13:42:54;7.75;;;1.70;;
53052;SDS011;38934;52.690;6.184;2023-08-31T13:45:26;6.03;;;2.00;;
53052;SDS011;38934;52.690;6.184;2023-08-31T13:47:52;7.57;;;2.25;;
53052;SDS011;38934;52.690;6.184;2023-08-31T13:50:18;7.28;;;2.10;;
53052;SDS011;38934;52.690;6.184;2023-08-31T13:52:44;6.45;;;1.50;;
53052;SDS011;38934;52.690;6.184;2023-08-31T13:55:10;8.70;;;1.73;;
53052;SDS011;38934;52.690;6.184;2023-08-31T13:57:36;6.43;;;1.80;;
53052;SDS011;38934;52.690;6.184;2023-08-31T14:00:03;2.80;;;1.70;;
53052;SDS011;38934;52.690;6.184;2023-08-31T14:02:29;6.15;;;1.88;;
53052;SDS011;38934;52.690;6.184;2023-08-31T14:04:55;6.30;;;2.00;;
53052;SDS011;38934;52.690;6.184;2023-08-31T14:07:22;8.50;;;1.98;;
53052;SDS011;38934;52.690;6.184;2023-08-31T14:09:47;6.63;;;2.00;;
53052;SDS011;38934;52.690;6.184;2023-08-31T14:12:13;5.85;;;1.98;;
53052;SDS011;38934;52.690;6.184;2023-08-31T14:14:38;8.07;;;1.70;;
53052;SDS011;38934;52.690;6.184;2023-08-31T14:17:06;7.90;;;1.60;;
53052;SDS011;38934;52.690;6.184;2023-08-31T14:19:32;9.77;;;1.80;;
53052;SDS011;38934;52.690;6.184;2023-08-31T14:22:00;7.63;;;1.63;;
53052;SDS011;38934;52.690;6.184;2023-08-31T14:24:28;6.18;;;1.60;;
53052;SDS011;38934;52.690;6.184;2023-08-31T14:26:54;6.68;;;1.70;;
53052;SDS011;38934;52.690;6.184;2023-08-31T14:29:20;5.68;;;1.70;;
53052;SDS011;38934;52.690;6.184;2023-08-31T14:31:45;5.15;;;1.73;;
53052;SDS011;38934;52.690;6.184;2023-08-31T14:34:11;5.43;;;1.65;;
53052;SDS011;38934;52.690;6.184;2023-08-31T14:36:37;6.60;;;1.52;;
53052;SDS011;38934;52.690;6.184;2023-08-31T14:39:02;5.40;;;1.67;;
53052;SDS011;38934;52.690;6.184;2023-08-31T14:41:29;5.22;;;1.60;;
53052;SDS011;38934;52.690;6.184;2023-08-31T14:43:55;5.80;;;1.50;;
53052;SDS011;38934;52.690;6.184;2023-08-31T14:46:21;5.60;;;1.35;;
53052;SDS011;38934;52.690;6.184;2023-08-31T14:48:47;4.60;;;1.77;;
53052;SDS011;38934;52.690;6.184;2023-08-31T14:51:12;6.63;;;1.77;;
53052;SDS011;38934;52.690;6.184;2023-08-31T14:53:39;7.03;;;1.92;;
53052;SDS011;38934;52.690;6.184;2023-08-31T14:56:05;8.07;;;2.15;;
53052;SDS011;38934;52.690;6.184;2023-08-31T14:58:31;4.88;;;1.50;;
53052;SDS011;38934;52.690;6.184;2023-08-31T15:00:57;6.63;;;1.85;;
53052;SDS011;38934;52.690;6.184;2023-08-31T15:03:22;7.00;;;1.40;;
53052;SDS011;38934;52.690;6.184;2023-08-31T15:05:49;6.75;;;1.80;;
53052;SDS011;38934;52.690;6.184;2023-08-31T15:08:15;5.75;;;1.80;;